Canada's Largest FIR

CZEG Edmonton

Screenshot by Thomas Smith

  Upcoming Events

Northern Lights Tuesdays  June 25, 2024 23:00z

  Online Controllers

No controllers online.

  Weather

CYYC - Calgary International Airport   OUTDATED
CYYC 250801Z 02006KT 15SM BKN110 12/03 A2999 RMK AC5 SLP158 DENSITY ALT 4100FT

CYEG - Edmonton International Airport  
CYEG 251433Z 31012KT 3SM -DZ BR FEW007 OVC012 11/11 A3004 RMK ST2ST6 SLP183

CYXY - Whitehorse / Erik Nielsen International Airport   OUTDATED
CYXY 242100Z 35008KT 310V040 40SM FEW060 BKN260 21/03 A2992 RMK CU2CI3 SLP144 DENSITY ALT 3600FT

CYZF - Yellowknife International Airport   OUTDATED
CYZF 242100Z 03013G20KT 15SM FEW060 BKN180 BKN250 16/M00 A2992 RMK SC2AC3CI1 SLP143 DENSITY ALT 1000FT

CYMM - Fort McMurray Airport   OUTDATED
CYMM 242100Z AUTO 32013G20KT 9SM BKN022 OVC032 17/12 A2961 RMK SLP038 DENSITY ALT 2100FT

CYQF - Red Deer Regional Airport   OUTDATED
CYQF 242100Z AUTO 28008G17KT 260V340 9SM FEW086 BKN110 BKN130 BKN150 20/02 A2979 RMK SLP098 DENSITY ALT 4400FT

CZVL - Edmonton / Villeneuve Airport   OUTDATED
CZVL 242100Z AUTO 31017G23KT 9SM SCT076 SCT099 20/04 A2974 RMK SLP072 DENSITY ALT 3700FT

CYBW - Calgary / Springbank Airport   OUTDATED
CYBW 242100Z AUTO 27016G29KT 9SM CLR 20/M01 A2983 RMK SLP106 DENSITY ALT 5600FT

CYOD - CFB Cold Lake   OUTDATED
CYOD 242100Z 25013KT 10SM -SHRA OVC020 13/12 A2966 RMK SC8 DENSITY ALT 2416FT SLP053

  View Our Airspace